createdAt,value
2019-05-30T00:00:30.891Z,102099.13
2019-05-30T00:03:00.264Z,102095.00
2019-05-30T00:05:28.933Z,102102.56
2019-05-30T00:07:58.175Z,102103.52
2019-05-30T00:10:26.839Z,102103.51
2019-05-30T00:12:56.668Z,102108.80
2019-05-30T00:15:25.749Z,102107.45
2019-05-30T00:17:54.633Z,102104.37
2019-05-30T00:20:23.361Z,102102.99
2019-05-30T00:22:51.913Z,102098.47
2019-05-30T00:25:20.555Z,102106.67
2019-05-30T00:27:49.227Z,102101.91
2019-05-30T00:30:24.241Z,102102.98
2019-05-30T00:32:48.105Z,102102.30
2019-05-30T00:35:16.597Z,102099.74
2019-05-30T00:37:45.127Z,102105.20
2019-05-30T00:40:14.107Z,102108.86
2019-05-30T00:42:42.684Z,102104.19
2019-05-30T00:45:20.977Z,102105.09
2019-05-30T00:47:41.624Z,102098.66
2019-05-30T00:50:10.210Z,102091.26
2019-05-30T00:52:38.705Z,102083.21
2019-05-30T00:55:07.438Z,102086.36
2019-05-30T00:57:35.982Z,102090.25
2019-05-30T01:00:07.133Z,102082.45
2019-05-30T01:02:35.807Z,102081.53
2019-05-30T01:05:07.686Z,102083.84
2019-05-30T01:07:36.202Z,102079.80
2019-05-30T01:10:07.614Z,102083.77
2019-05-30T01:12:36.408Z,102077.70
2019-05-30T01:15:07.479Z,102073.86
2019-05-30T01:17:36.122Z,102076.77
2019-05-30T01:20:05.869Z,102067.16
2019-05-30T01:22:34.449Z,102066.73
2019-05-30T01:25:04.405Z,102071.53
2019-05-30T01:27:33.294Z,102061.50
2019-05-30T01:30:01.971Z,102059.05
2019-05-30T01:32:30.687Z,102056.19
2019-05-30T01:34:59.732Z,102052.30
2019-05-30T01:37:28.548Z,102051.84
2019-05-30T01:39:57.707Z,102055.79
2019-05-30T01:42:26.356Z,102054.83
2019-05-30T01:44:55.426Z,102049.91
2019-05-30T01:47:24.016Z,102059.47
2019-05-30T01:49:52.536Z,102053.52
2019-05-30T01:52:21.082Z,102057.88
2019-05-30T01:54:49.644Z,102061.30
2019-05-30T01:57:18.335Z,102055.73
2019-05-30T01:59:46.973Z,102061.19
2019-05-30T02:02:15.488Z,102062.05
2019-05-30T02:04:43.993Z,102056.55
2019-05-30T02:07:12.510Z,102057.05
2019-05-30T02:09:41.079Z,102050.58
2019-05-30T02:12:09.714Z,102054.61
2019-05-30T02:14:38.262Z,102050.48
2019-05-30T02:17:07.792Z,102055.79
2019-05-30T02:19:36.529Z,102053.03
2019-05-30T02:22:05.833Z,102041.73
2019-05-30T02:24:34.455Z,102052.78
2019-05-30T02:27:04.113Z,102047.88
2019-05-30T02:29:32.692Z,102048.25
2019-05-30T02:32:02.959Z,102051.41
2019-05-30T02:34:31.467Z,102059.58
2019-05-30T02:37:01.227Z,102058.39
2019-05-30T02:39:30.175Z,102060.69
2019-05-30T02:41:58.730Z,102062.62
2019-05-30T02:44:27.283Z,102060.73
2019-05-30T02:46:57.517Z,102069.23
2019-05-30T02:49:26.338Z,102067.91
2019-05-30T02:51:55.115Z,102068.97
2019-05-30T02:54:23.718Z,102069.02
2019-05-30T02:56:52.286Z,102058.39
2019-05-30T02:59:20.898Z,102063.72
2019-05-30T03:02:01.399Z,102061.12
2019-05-30T03:04:19.795Z,102069.10
2019-05-30T03:06:48.409Z,102080.58
2019-05-30T03:09:17.065Z,102075.19
2019-05-30T03:11:45.701Z,102074.45
2019-05-30T03:14:19.213Z,102074.23
2019-05-30T03:16:44.536Z,102071.29
2019-05-30T03:19:13.065Z,102067.23
2019-05-30T03:21:41.804Z,102072.75
2019-05-30T03:24:13.662Z,102071.13
2019-05-30T03:26:40.878Z,102068.98
2019-05-30T03:29:10.074Z,102070.70
2019-05-30T03:31:39.612Z,102064.59
2019-05-30T03:34:14.015Z,102067.78
2019-05-30T03:36:38.461Z,102072.61
2019-05-30T03:39:07.760Z,102078.84
2019-05-30T03:41:37.607Z,102084.53
2019-05-30T03:44:08.337Z,102079.72
2019-05-30T03:46:42.257Z,102074.17
2019-05-30T03:49:15.060Z,102078.16
2019-05-30T03:51:43.734Z,102083.83
2019-05-30T03:54:14.159Z,102081.02
2019-05-30T03:56:51.634Z,102085.39
2019-05-30T03:59:26.595Z,102085.31
2019-05-30T04:02:08.938Z,102085.28
2019-05-30T04:04:42.929Z,102092.58
2019-05-30T04:07:15.771Z,102094.91
2019-05-30T04:09:45.047Z,102093.91
2019-05-30T04:12:28.630Z,102093.97
2019-05-30T04:15:07.834Z,102088.38
2019-05-30T04:17:36.447Z,102087.73
2019-05-30T04:20:09.333Z,102090.18
2019-05-30T04:22:38.343Z,102098.37
2019-05-30T04:25:08.573Z,102083.77
2019-05-30T04:27:37.212Z,102094.23
2019-05-30T04:30:07.878Z,102092.19
2019-05-30T04:32:36.429Z,102094.72
2019-05-30T04:35:05.761Z,102096.08
2019-05-30T04:37:34.490Z,102095.06
2019-05-30T04:40:04.395Z,102094.72
2019-05-30T04:42:32.909Z,102092.72
2019-05-30T04:45:01.482Z,102094.03
2019-05-30T04:47:29.973Z,102101.43
2019-05-30T04:49:58.560Z,102106.20
2019-05-30T04:52:27.110Z,102105.70
2019-05-30T04:54:55.612Z,102106.18
2019-05-30T04:57:27.044Z,102114.49
2019-05-30T04:59:54.352Z,102111.30
2019-05-30T05:02:24.488Z,102114.11
2019-05-30T05:04:53.086Z,102118.63
2019-05-30T05:07:22.132Z,102113.25
2019-05-30T05:09:50.817Z,102113.25
2019-05-30T05:12:20.365Z,102120.08
2019-05-30T05:14:48.988Z,102126.05
2019-05-30T05:17:18.853Z,102122.03
2019-05-30T05:19:47.478Z,102113.52
2019-05-30T05:22:17.027Z,102122.52
2019-05-30T05:24:45.622Z,102120.52
2019-05-30T05:27:15.509Z,102112.34
2019-05-30T05:29:44.128Z,102125.52
2019-05-30T05:32:12.660Z,102121.08
2019-05-30T05:34:41.203Z,102127.42
2019-05-30T05:37:09.711Z,102130.82
2019-05-30T05:39:38.222Z,102126.39
2019-05-30T05:42:06.825Z,102125.41
2019-05-30T05:44:35.344Z,102131.42
2019-05-30T05:47:03.844Z,102134.46
2019-05-30T05:49:32.320Z,102137.83
2019-05-30T05:52:00.854Z,102139.18
2019-05-30T05:54:29.405Z,102145.33
2019-05-30T05:56:57.973Z,102145.44
2019-05-30T05:59:26.577Z,102146.73
2019-05-30T06:01:55.090Z,102153.73
2019-05-30T06:04:23.674Z,102151.13
2019-05-30T06:06:52.168Z,102153.25
2019-05-30T06:09:20.706Z,102159.59
2019-05-30T06:11:49.285Z,102158.80
2019-05-30T06:14:17.881Z,102167.30
2019-05-30T06:16:46.420Z,102166.61
2019-05-30T06:19:15.010Z,102174.81
2019-05-30T06:21:53.656Z,102173.82
2019-05-30T06:24:13.865Z,102166.98
2019-05-30T06:26:42.465Z,102172.19
2019-05-30T06:29:11.095Z,102171.38
2019-05-30T06:31:39.670Z,102162.37
2019-05-30T06:34:08.284Z,102166.17
2019-05-30T06:36:36.868Z,102170.46
2019-05-30T06:39:07.813Z,102174.70
2019-05-30T06:41:36.632Z,102184.81
2019-05-30T06:44:05.936Z,102175.67
2019-05-30T06:46:34.531Z,102177.58
2019-05-30T06:49:03.195Z,102170.20
2019-05-30T06:51:31.811Z,102173.56
2019-05-30T06:54:00.321Z,102172.19
2019-05-30T06:56:29.498Z,102171.05
2019-05-30T06:58:58.125Z,102176.48
2019-05-30T07:01:27.884Z,102180.95
2019-05-30T07:03:56.626Z,102185.75
2019-05-30T07:06:26.817Z,102189.19
2019-05-30T07:08:55.532Z,102191.89
2019-05-30T07:11:24.722Z,102187.05
2019-05-30T07:13:53.311Z,102187.75
2019-05-30T07:16:23.294Z,102197.67
2019-05-30T07:18:51.917Z,102196.08
2019-05-30T07:21:20.415Z,102199.67
2019-05-30T07:23:49.025Z,102195.94
2019-05-30T07:26:17.646Z,102199.30
2019-05-30T07:28:46.202Z,102206.42
2019-05-30T07:31:14.688Z,102201.48
2019-05-30T07:33:43.332Z,102203.19
2019-05-30T07:36:11.894Z,102202.59
2019-05-30T07:38:40.508Z,102208.69
2019-05-30T07:41:09.057Z,102205.38
2019-05-30T07:43:37.596Z,102217.20
2019-05-30T07:46:06.180Z,102227.16
2019-05-30T07:48:34.792Z,102222.77
2019-05-30T07:51:03.293Z,102222.08
2019-05-30T07:53:32.824Z,102230.27
2019-05-30T07:56:01.364Z,102222.20
2019-05-30T07:58:30.930Z,102227.80
2019-05-30T08:00:59.680Z,102221.67
2019-05-30T08:03:28.406Z,102223.89
2019-05-30T08:05:56.981Z,102219.09
2019-05-30T08:08:25.490Z,102224.70
2019-05-30T08:11:08.465Z,102222.44
2019-05-30T08:13:24.462Z,102226.96
2019-05-30T08:15:53.128Z,102221.09
2019-05-30T08:18:21.744Z,102215.97
2019-05-30T08:20:50.338Z,102230.78
2019-05-30T08:23:18.916Z,102234.36
2019-05-30T08:25:47.518Z,102233.91
2019-05-30T08:28:16.121Z,102243.98
2019-05-30T08:30:44.690Z,102242.00
2019-05-30T08:33:13.403Z,102248.03
2019-05-30T08:35:49.621Z,102238.78
2019-05-30T08:38:12.423Z,102244.27
2019-05-30T08:40:41.212Z,102236.49
2019-05-30T08:43:09.792Z,102246.86
2019-05-30T08:45:38.427Z,102238.23
2019-05-30T08:48:06.995Z,102239.48
2019-05-30T08:50:36.815Z,102247.73
2019-05-30T08:53:05.855Z,102243.51
2019-05-30T08:55:34.434Z,102248.13
2019-05-30T08:58:02.959Z,102251.33
2019-05-30T09:00:31.549Z,102251.56
2019-05-30T09:03:00.186Z,102260.96
2019-05-30T09:05:28.752Z,102261.84
2019-05-30T09:07:57.258Z,102260.82
2019-05-30T09:10:25.863Z,102258.34
2019-05-30T09:12:54.436Z,102261.78
2019-05-30T09:15:23.040Z,102261.51
2019-05-30T09:17:51.681Z,102268.45
2019-05-30T09:20:20.287Z,102275.39
2019-05-30T09:22:48.901Z,102279.55
2019-05-30T09:25:17.507Z,102271.27
2019-05-30T09:27:46.626Z,102264.62
2019-05-30T09:30:15.844Z,102261.58
2019-05-30T09:32:45.133Z,102267.14
2019-05-30T09:35:13.817Z,102269.70
2019-05-30T09:37:44.046Z,102267.89
2019-05-30T09:40:13.216Z,102263.55
2019-05-30T09:42:44.143Z,102257.36
2019-05-30T09:45:12.157Z,102262.23
2019-05-30T09:47:43.026Z,102256.99
2019-05-30T09:50:10.955Z,102261.22
2019-05-30T09:52:41.587Z,102262.34
2019-05-30T09:55:09.829Z,102265.13
2019-05-30T09:57:38.309Z,102264.48
2019-05-30T10:00:11.964Z,102270.45
2019-05-30T10:02:42.880Z,102263.95
2019-05-30T10:05:10.717Z,102270.82
2019-05-30T10:07:39.327Z,102266.14
2019-05-30T10:10:08.003Z,102270.23
2019-05-30T10:12:36.533Z,102278.70
2019-05-30T10:15:08.100Z,102280.95
2019-05-30T10:17:36.711Z,102276.75
2019-05-30T10:20:07.992Z,102284.63
2019-05-30T10:22:36.582Z,102287.31
2019-05-30T10:25:06.806Z,102289.11
2019-05-30T10:27:35.390Z,102288.42
2019-05-30T10:30:08.622Z,102291.79
2019-05-30T10:32:37.105Z,102297.22
2019-05-30T10:35:05.761Z,102298.35
2019-05-30T10:37:34.298Z,102302.81
2019-05-30T10:40:04.304Z,102306.27
2019-05-30T10:42:33.005Z,102305.95
2019-05-30T10:45:01.597Z,102296.31
2019-05-30T10:47:30.136Z,102304.50
2019-05-30T10:49:58.673Z,102308.57
2019-05-30T10:52:29.905Z,102318.17
2019-05-30T10:55:05.389Z,102319.05
2019-05-30T10:57:35.671Z,102317.89
2019-05-30T11:00:18.594Z,102322.59
2019-05-30T11:02:47.893Z,102327.98
2019-05-30T11:05:21.201Z,102328.73
2019-05-30T11:08:06.223Z,102332.37
2019-05-30T11:10:41.945Z,102327.87
2019-05-30T11:13:16.939Z,102321.33
2019-05-30T11:15:55.827Z,102325.59
2019-05-30T11:18:27.568Z,102323.41
2019-05-30T11:20:56.390Z,102326.08
2019-05-30T11:23:32.071Z,102329.98
2019-05-30T11:26:04.690Z,102333.66
2019-05-30T11:28:33.269Z,102323.96
2019-05-30T11:31:04.555Z,102330.61
2019-05-30T11:33:32.153Z,102327.89
2019-05-30T11:36:00.769Z,102329.59
2019-05-30T11:38:29.349Z,102327.86
2019-05-30T11:41:03.930Z,102325.58
2019-05-30T11:43:28.240Z,102326.97
2019-05-30T11:46:27.768Z,102327.33
2019-05-30T11:48:28.127Z,102329.32
2019-05-30T11:50:57.916Z,102328.17
2019-05-30T11:53:26.665Z,102334.13
2019-05-30T11:55:56.220Z,102331.17
2019-05-30T11:58:25.122Z,102331.64
2019-05-30T12:00:54.703Z,102333.78
2019-05-30T12:03:23.424Z,102335.91
2019-05-30T12:05:52.537Z,102338.45
2019-05-30T12:08:21.101Z,102338.74
2019-05-30T12:10:50.924Z,102344.94
2019-05-30T12:13:22.498Z,102346.28
2019-05-30T12:15:51.379Z,102344.38
2019-05-30T12:18:20.194Z,102336.38
2019-05-30T12:20:51.727Z,102332.09
2019-05-30T12:23:20.275Z,102330.55
2019-05-30T12:25:48.862Z,102330.73
2019-05-30T12:28:20.525Z,102319.66
2019-05-30T12:30:59.454Z,102318.06
2019-05-30T12:33:26.025Z,102317.28
2019-05-30T12:35:54.566Z,102317.55
2019-05-30T12:38:26.080Z,102308.23
2019-05-30T12:40:57.333Z,102308.95
2019-05-30T12:43:25.892Z,102303.98
2019-05-30T12:45:54.908Z,102302.03
2019-05-30T12:48:29.722Z,102294.02
2019-05-30T12:50:59.363Z,102298.09
2019-05-30T12:53:29.111Z,102294.55
2019-05-30T12:56:00.652Z,102287.03
2019-05-30T12:58:29.221Z,102289.25
2019-05-30T13:00:58.727Z,102290.03
2019-05-30T13:03:27.421Z,102286.83
2019-05-30T13:05:57.047Z,102296.66
2019-05-30T13:08:25.696Z,102286.77
2019-05-30T13:10:55.493Z,102286.83
2019-05-30T13:13:24.201Z,102278.88
2019-05-30T13:15:52.711Z,102274.84
2019-05-30T13:18:21.235Z,102274.16
2019-05-30T13:20:49.777Z,102284.77
2019-05-30T13:23:18.300Z,102277.30
2019-05-30T13:25:46.856Z,102282.44
2019-05-30T13:28:15.394Z,102280.04
2019-05-30T13:30:43.893Z,102278.58
2019-05-30T13:33:12.472Z,102285.61
2019-05-30T13:35:41.082Z,102284.70
2019-05-30T13:38:09.615Z,102274.66
2019-05-30T13:40:38.130Z,102282.09
2019-05-30T13:43:07.948Z,102270.39
2019-05-30T13:45:36.593Z,102277.13
2019-05-30T13:48:06.536Z,102271.70
2019-05-30T13:50:35.181Z,102271.73
2019-05-30T13:53:05.234Z,102273.70
2019-05-30T13:55:33.943Z,102272.84
2019-05-30T13:58:03.601Z,102283.64
2019-05-30T14:00:32.217Z,102273.73
2019-05-30T14:03:02.162Z,102275.42
2019-05-30T14:05:30.807Z,102276.59
2019-05-30T14:08:06.486Z,102277.98
2019-05-30T14:10:37.495Z,102279.78
2019-05-30T14:13:06.724Z,102272.98
2019-05-30T14:15:35.389Z,102263.31
2019-05-30T14:18:07.324Z,102273.45
2019-05-30T14:20:36.017Z,102269.64
2019-05-30T14:23:05.448Z,102261.47
2019-05-30T14:25:34.189Z,102268.86
2019-05-30T14:28:04.157Z,102265.98
2019-05-30T14:30:32.874Z,102261.75
2019-05-30T14:33:02.102Z,102262.80
2019-05-30T14:35:30.755Z,102264.05
2019-05-30T14:37:59.333Z,102266.07
2019-05-30T14:40:27.920Z,102267.45
2019-05-30T14:42:56.486Z,102263.29
2019-05-30T14:45:27.730Z,102265.23
2019-05-30T14:47:55.258Z,102267.51
2019-05-30T14:50:23.799Z,102263.78
2019-05-30T14:52:52.507Z,102272.00
2019-05-30T14:55:21.127Z,102266.35
2019-05-30T14:57:49.806Z,102269.36
2019-05-30T15:00:18.534Z,102270.27
2019-05-30T15:02:47.203Z,102279.27
2019-05-30T15:05:16.292Z,102268.48
2019-05-30T15:07:44.858Z,102276.53
2019-05-30T15:10:13.515Z,102270.72
2019-05-30T15:12:42.132Z,102273.98
2019-05-30T15:15:14.774Z,102275.88
2019-05-30T15:17:42.529Z,102281.09
2019-05-30T15:20:12.178Z,102277.39
2019-05-30T15:22:41.116Z,102285.25
2019-05-30T15:25:12.102Z,102280.92
2019-05-30T15:27:40.779Z,102287.75
2019-05-30T15:30:10.541Z,102292.57
2019-05-30T15:32:42.271Z,102291.78
2019-05-30T15:35:11.091Z,102297.33
2019-05-30T15:37:40.856Z,102294.56
2019-05-30T15:40:10.970Z,102308.27
2019-05-30T15:42:39.630Z,102301.59
2019-05-30T15:45:09.980Z,102309.98
2019-05-30T15:47:38.793Z,102310.80
2019-05-30T15:50:08.801Z,102307.30
2019-05-30T15:52:37.343Z,102307.77
2019-05-30T15:55:07.327Z,102308.16
2019-05-30T15:57:36.291Z,102306.39
2019-05-30T16:00:10.099Z,102304.30
2019-05-30T16:02:38.841Z,102305.89
2019-05-30T16:05:10.331Z,102304.33
2019-05-30T16:07:39.084Z,102304.61
2019-05-30T16:10:07.698Z,102312.33
2019-05-30T16:12:36.285Z,102303.93
2019-05-30T16:15:06.855Z,102313.81
2019-05-30T16:17:35.410Z,102311.75
2019-05-30T16:20:05.199Z,102312.25
2019-05-30T16:22:33.762Z,102309.93
2019-05-30T16:25:02.381Z,102315.25
2019-05-30T16:27:31.326Z,102312.17
2019-05-30T16:29:59.829Z,102313.56
2019-05-30T16:32:28.319Z,102316.98
2019-05-30T16:34:56.850Z,102315.33
2019-05-30T16:37:26.324Z,102315.81
2019-05-30T16:40:05.171Z,102317.22
2019-05-30T16:42:25.138Z,102320.66
2019-05-30T16:44:53.626Z,102321.50
2019-05-30T16:47:22.525Z,102317.92
2019-05-30T16:49:51.087Z,102325.67
2019-05-30T16:52:19.575Z,102322.72
2019-05-30T16:54:48.160Z,102319.55
2019-05-30T16:57:16.754Z,102314.30
2019-05-30T16:59:45.316Z,102311.54
2019-05-30T17:02:14.774Z,102310.73
2019-05-30T17:04:43.445Z,102311.21
2019-05-30T17:07:12.128Z,102302.39
2019-05-30T17:09:40.768Z,102302.23
2019-05-30T17:12:09.328Z,102301.28
2019-05-30T17:14:37.853Z,102304.94
2019-05-30T17:17:06.344Z,102305.47
2019-05-30T17:19:34.942Z,102306.98
2019-05-30T17:22:03.494Z,102303.81
2019-05-30T17:24:32.100Z,102305.87
2019-05-30T17:27:00.683Z,102307.58
2019-05-30T17:29:29.384Z,102309.77
2019-05-30T17:31:57.855Z,102312.34
2019-05-30T17:34:26.340Z,102307.13
2019-05-30T17:36:54.867Z,102313.00
2019-05-30T17:39:24.821Z,102312.06
2019-05-30T17:41:56.472Z,102305.04
2019-05-30T17:44:25.201Z,102310.87
2019-05-30T17:46:53.816Z,102315.91
2019-05-30T17:49:23.605Z,102318.02
2019-05-30T17:51:52.252Z,102324.14
2019-05-30T17:54:21.744Z,102325.66
2019-05-30T17:56:50.352Z,102318.93
2019-05-30T17:59:20.064Z,102322.77
2019-05-30T18:01:48.794Z,102324.95
2019-05-30T18:04:17.368Z,102323.36
2019-05-30T18:06:45.951Z,102328.97
2019-05-30T18:09:14.454Z,102329.13
2019-05-30T18:11:42.998Z,102324.14
2019-05-30T18:14:11.518Z,102324.76
2019-05-30T18:16:40.056Z,102326.53
2019-05-30T18:19:08.803Z,102327.05
2019-05-30T18:21:37.427Z,102326.57
2019-05-30T18:24:05.972Z,102324.92
2019-05-30T18:26:34.538Z,102326.48
2019-05-30T18:29:03.101Z,102332.13
2019-05-30T18:31:32.278Z,102329.68
2019-05-30T18:34:00.987Z,102333.91
2019-05-30T18:36:32.693Z,102331.83
2019-05-30T18:39:01.465Z,102330.45
2019-05-30T18:41:30.907Z,102334.04
2019-05-30T18:43:59.440Z,102336.70
2019-05-30T18:46:28.925Z,102336.80
2019-05-30T18:48:57.739Z,102330.41
2019-05-30T18:51:26.314Z,102332.77
2019-05-30T18:53:54.911Z,102332.17
2019-05-30T18:56:24.524Z,102335.86
2019-05-30T18:58:53.190Z,102333.85
2019-05-30T19:01:21.825Z,102333.91
2019-05-30T19:03:50.425Z,102342.83
2019-05-30T19:06:18.994Z,102340.31
2019-05-30T19:08:47.674Z,102342.31
2019-05-30T19:11:27.234Z,102342.14
2019-05-30T19:13:46.409Z,102346.09
2019-05-30T19:16:14.954Z,102345.27
2019-05-30T19:18:43.450Z,102341.13
2019-05-30T19:21:12.034Z,102344.59
2019-05-30T19:23:40.639Z,102344.64
2019-05-30T19:26:09.195Z,102353.05
2019-05-30T19:28:37.704Z,102347.02
2019-05-30T19:31:06.342Z,102347.71
2019-05-30T19:33:35.010Z,102356.61
2019-05-30T19:36:03.588Z,102358.58
2019-05-30T19:38:33.271Z,102356.78
2019-05-30T19:41:01.940Z,102357.37
2019-05-30T19:43:31.646Z,102361.05
2019-05-30T19:46:00.219Z,102365.80
2019-05-30T19:48:28.712Z,102367.03
2019-05-30T19:50:57.233Z,102369.72
2019-05-30T19:53:25.963Z,102371.78
2019-05-30T19:55:54.586Z,102371.58
2019-05-30T19:58:23.113Z,102375.25
2019-05-30T20:00:58.537Z,102376.86
2019-05-30T20:05:52.411Z,102387.54
2019-05-30T20:06:13.543Z,102379.77
2019-05-30T20:08:20.967Z,102387.95
2019-05-30T20:10:49.565Z,102390.22
2019-05-30T20:13:18.127Z,102394.17
2019-05-30T20:15:46.654Z,102402.59
2019-05-30T20:18:15.202Z,102408.93
2019-05-30T20:20:53.868Z,102410.14
2019-05-30T20:23:14.010Z,102410.80
2019-05-30T20:25:45.856Z,102413.18
2019-05-30T20:28:12.884Z,102407.23
2019-05-30T20:30:41.559Z,102407.06
2019-05-30T20:33:10.167Z,102412.20
2019-05-30T20:35:40.052Z,102412.58
2019-05-30T20:38:09.200Z,102416.08
2019-05-30T20:40:38.613Z,102413.30
2019-05-30T20:43:07.525Z,102412.66
2019-05-30T20:45:39.542Z,102414.91
2019-05-30T20:48:06.333Z,102418.95
2019-05-30T20:50:35.052Z,102420.63
2019-05-30T20:53:03.603Z,102416.12
2019-05-30T20:55:32.277Z,102420.10
2019-05-30T20:58:00.876Z,102411.28
2019-05-30T21:00:37.771Z,102415.44
2019-05-30T21:03:06.624Z,102414.73
2019-05-30T21:05:35.653Z,102419.63
2019-05-30T21:08:05.931Z,102419.47
2019-05-30T21:10:34.894Z,102419.22
2019-05-30T21:13:04.033Z,102423.16
2019-05-30T21:15:32.560Z,102423.45
2019-05-30T21:18:01.037Z,102422.19
2019-05-30T21:20:29.575Z,102426.67
2019-05-30T21:22:58.053Z,102433.20
2019-05-30T21:25:26.561Z,102439.61
2019-05-30T21:27:55.079Z,102439.73
2019-05-30T21:30:23.714Z,102440.52
2019-05-30T21:32:52.394Z,102442.78
2019-05-30T21:35:21.228Z,102449.97
2019-05-30T21:37:49.878Z,102450.83
2019-05-30T21:40:18.440Z,102447.92
2019-05-30T21:43:04.227Z,102449.11
2019-05-30T21:45:17.466Z,102452.52
2019-05-30T21:47:46.860Z,102450.34
2019-05-30T21:50:15.432Z,102456.50
2019-05-30T21:52:43.913Z,102460.37
2019-05-30T21:55:12.406Z,102459.80
2019-05-30T21:57:41.895Z,102452.65
2019-05-30T22:00:18.991Z,102457.13
2019-05-30T22:02:54.211Z,102456.31
2019-05-30T22:05:23.314Z,102456.72
2019-05-30T22:07:51.838Z,102455.25
2019-05-30T22:10:20.442Z,102454.42
2019-05-30T22:12:49.674Z,102456.23
2019-05-30T22:15:18.320Z,102450.81
2019-05-30T22:17:47.901Z,102452.41
2019-05-30T22:20:16.476Z,102454.71
2019-05-30T22:22:46.024Z,102452.34
2019-05-30T22:25:14.725Z,102454.14
2019-05-30T22:27:44.329Z,102461.20
2019-05-30T22:30:13.111Z,102458.20
2019-05-30T22:32:42.571Z,102461.11
2019-05-30T22:35:11.301Z,102456.15
2019-05-30T22:37:39.770Z,102453.69
2019-05-30T22:40:08.250Z,102459.42
2019-05-30T22:42:36.801Z,102456.88
2019-05-30T22:45:08.306Z,102457.50
2019-05-30T22:47:36.871Z,102455.40
2019-05-30T22:50:06.275Z,102452.48
2019-05-30T22:52:34.779Z,102454.00
2019-05-30T22:55:03.313Z,102451.99
2019-05-30T22:57:31.790Z,102451.70
2019-05-30T23:00:00.340Z,102450.22
2019-05-30T23:02:29.118Z,102448.98
2019-05-30T23:04:57.608Z,102451.57
2019-05-30T23:07:26.207Z,102447.50
2019-05-30T23:09:55.923Z,102444.42
2019-05-30T23:12:24.538Z,102443.52
2019-05-30T23:14:54.213Z,102449.63
2019-05-30T23:17:22.964Z,102449.09
2019-05-30T23:19:52.044Z,102454.26
2019-05-30T23:22:21.938Z,102453.44
2019-05-30T23:24:52.249Z,102450.56
2019-05-30T23:27:20.673Z,102452.03
2019-05-30T23:29:49.724Z,102448.38
2019-05-30T23:32:18.294Z,102453.08
2019-05-30T23:34:48.125Z,102451.56
2019-05-30T23:37:16.757Z,102457.50
2019-05-30T23:39:45.303Z,102454.25
2019-05-30T23:42:13.891Z,102450.59
2019-05-30T23:44:42.453Z,102448.37
2019-05-30T23:47:11.067Z,102454.64
2019-05-30T23:49:39.673Z,102458.27
2019-05-30T23:52:08.200Z,102451.91
2019-05-30T23:54:36.714Z,102450.06
2019-05-30T23:57:05.192Z,102454.64
2019-05-30T23:59:33.696Z,102457.42
